sensor_id;sensor_type;location;lat;lon;timestamp;P1;durP1;ratioP1;P2;durP2;ratioP2
19754;SDS011;10036;47.812;9.274;2024-01-25T00:00:16;3.83;;;2.25;;
19754;SDS011;10036;47.812;9.274;2024-01-25T00:02:44;4.00;;;2.30;;
19754;SDS011;10036;47.812;9.274;2024-01-25T00:05:10;4.38;;;2.65;;
19754;SDS011;10036;47.812;9.274;2024-01-25T00:07:44;2.47;;;2.28;;
19754;SDS011;10036;47.812;9.274;2024-01-25T00:10:13;1.90;;;1.70;;
19754;SDS011;10036;47.812;9.274;2024-01-25T00:12:41;2.58;;;1.95;;
19754;SDS011;10036;47.812;9.274;2024-01-25T00:15:08;2.90;;;2.03;;
19754;SDS011;10036;47.812;9.274;2024-01-25T00:17:35;2.88;;;2.55;;
19754;SDS011;10036;47.812;9.274;2024-01-25T00:20:02;2.55;;;2.38;;
19754;SDS011;10036;47.812;9.274;2024-01-25T00:22:30;2.47;;;2.15;;
19754;SDS011;10036;47.812;9.274;2024-01-25T00:24:57;3.40;;;2.03;;
19754;SDS011;10036;47.812;9.274;2024-01-25T00:27:25;2.92;;;2.10;;
19754;SDS011;10036;47.812;9.274;2024-01-25T00:29:52;2.42;;;2.22;;
19754;SDS011;10036;47.812;9.274;2024-01-25T00:32:19;2.40;;;2.20;;
19754;SDS011;10036;47.812;9.274;2024-01-25T00:34:46;2.25;;;2.10;;
19754;SDS011;10036;47.812;9.274;2024-01-25T00:37:13;2.85;;;2.10;;
19754;SDS011;10036;47.812;9.274;2024-01-25T00:39:41;2.10;;;1.90;;
19754;SDS011;10036;47.812;9.274;2024-01-25T00:42:08;3.20;;;2.15;;
19754;SDS011;10036;47.812;9.274;2024-01-25T00:44:41;2.97;;;1.80;;
19754;SDS011;10036;47.812;9.274;2024-01-25T00:47:08;2.08;;;1.90;;
19754;SDS011;10036;47.812;9.274;2024-01-25T00:49:36;2.72;;;2.10;;
19754;SDS011;10036;47.812;9.274;2024-01-25T00:52:04;2.88;;;2.03;;
19754;SDS011;10036;47.812;9.274;2024-01-25T00:54:32;2.78;;;2.03;;
19754;SDS011;10036;47.812;9.274;2024-01-25T00:56:59;3.53;;;2.13;;
19754;SDS011;10036;47.812;9.274;2024-01-25T00:59:26;2.35;;;2.15;;
19754;SDS011;10036;47.812;9.274;2024-01-25T01:01:55;4.45;;;2.40;;
19754;SDS011;10036;47.812;9.274;2024-01-25T01:04:25;4.13;;;2.63;;
19754;SDS011;10036;47.812;9.274;2024-01-25T01:06:52;2.80;;;2.20;;
19754;SDS011;10036;47.812;9.274;2024-01-25T01:09:20;3.70;;;2.10;;
19754;SDS011;10036;47.812;9.274;2024-01-25T01:11:46;2.05;;;1.95;;
19754;SDS011;10036;47.812;9.274;2024-01-25T01:14:15;1.98;;;1.83;;
19754;SDS011;10036;47.812;9.274;2024-01-25T01:16:42;2.00;;;1.90;;
19754;SDS011;10036;47.812;9.274;2024-01-25T01:19:10;3.67;;;1.90;;
19754;SDS011;10036;47.812;9.274;2024-01-25T01:21:37;2.35;;;1.70;;
19754;SDS011;10036;47.812;9.274;2024-01-25T01:24:08;2.58;;;1.90;;
19754;SDS011;10036;47.812;9.274;2024-01-25T01:26:36;3.20;;;1.90;;
19754;SDS011;10036;47.812;9.274;2024-01-25T01:29:03;3.05;;;1.90;;
19754;SDS011;10036;47.812;9.274;2024-01-25T01:31:29;2.10;;;2.00;;
19754;SDS011;10036;47.812;9.274;2024-01-25T01:33:57;1.90;;;1.80;;
19754;SDS011;10036;47.812;9.274;2024-01-25T01:36:25;2.72;;;2.17;;
19754;SDS011;10036;47.812;9.274;2024-01-25T01:38:52;3.00;;;2.05;;
19754;SDS011;10036;47.812;9.274;2024-01-25T01:41:19;4.22;;;2.67;;
19754;SDS011;10036;47.812;9.274;2024-01-25T01:43:46;32.97;;;12.25;;
19754;SDS011;10036;47.812;9.274;2024-01-25T01:46:16;71.85;;;23.65;;
19754;SDS011;10036;47.812;9.274;2024-01-25T01:48:53;39.63;;;14.30;;
19754;SDS011;10036;47.812;9.274;2024-01-25T01:51:20;12.73;;;5.78;;
19754;SDS011;10036;47.812;9.274;2024-01-25T01:53:48;6.35;;;2.90;;
19754;SDS011;10036;47.812;9.274;2024-01-25T01:56:15;7.35;;;3.25;;
19754;SDS011;10036;47.812;9.274;2024-01-25T01:58:42;4.90;;;2.90;;
19754;SDS011;10036;47.812;9.274;2024-01-25T02:01:12;5.28;;;2.88;;
19754;SDS011;10036;47.812;9.274;2024-01-25T02:03:39;4.25;;;2.30;;
19754;SDS011;10036;47.812;9.274;2024-01-25T02:06:06;4.18;;;2.20;;
19754;SDS011;10036;47.812;9.274;2024-01-25T02:08:33;3.13;;;1.73;;
19754;SDS011;10036;47.812;9.274;2024-01-25T02:11:02;3.65;;;2.20;;
19754;SDS011;10036;47.812;9.274;2024-01-25T02:13:29;2.17;;;1.92;;
19754;SDS011;10036;47.812;9.274;2024-01-25T02:15:55;2.72;;;1.58;;
19754;SDS011;10036;47.812;9.274;2024-01-25T02:18:22;6.28;;;2.05;;
19754;SDS011;10036;47.812;9.274;2024-01-25T02:20:49;2.25;;;1.70;;
19754;SDS011;10036;47.812;9.274;2024-01-25T02:23:17;2.08;;;1.52;;
19754;SDS011;10036;47.812;9.274;2024-01-25T02:25:44;2.15;;;1.67;;
19754;SDS011;10036;47.812;9.274;2024-01-25T02:28:11;4.53;;;1.60;;
19754;SDS011;10036;47.812;9.274;2024-01-25T02:30:38;3.05;;;1.70;;
19754;SDS011;10036;47.812;9.274;2024-01-25T02:33:05;4.28;;;1.90;;
19754;SDS011;10036;47.812;9.274;2024-01-25T02:35:31;1.83;;;1.67;;
19754;SDS011;10036;47.812;9.274;2024-01-25T02:37:58;1.98;;;1.42;;
19754;SDS011;10036;47.812;9.274;2024-01-25T02:40:27;2.72;;;1.60;;
19754;SDS011;10036;47.812;9.274;2024-01-25T02:42:54;3.35;;;1.50;;
19754;SDS011;10036;47.812;9.274;2024-01-25T02:45:21;4.93;;;1.85;;
19754;SDS011;10036;47.812;9.274;2024-01-25T02:47:48;3.85;;;1.88;;
19754;SDS011;10036;47.812;9.274;2024-01-25T02:50:15;3.45;;;1.50;;
19754;SDS011;10036;47.812;9.274;2024-01-25T02:52:42;3.70;;;1.75;;
19754;SDS011;10036;47.812;9.274;2024-01-25T02:55:09;2.28;;;1.52;;
19754;SDS011;10036;47.812;9.274;2024-01-25T02:57:37;1.80;;;1.38;;
19754;SDS011;10036;47.812;9.274;2024-01-25T03:00:04;2.75;;;1.77;;
19754;SDS011;10036;47.812;9.274;2024-01-25T03:02:32;2.92;;;1.58;;
19754;SDS011;10036;47.812;9.274;2024-01-25T03:04:59;4.65;;;2.17;;
19754;SDS011;10036;47.812;9.274;2024-01-25T03:07:25;3.80;;;1.45;;
19754;SDS011;10036;47.812;9.274;2024-01-25T03:09:52;2.55;;;1.55;;
19754;SDS011;10036;47.812;9.274;2024-01-25T03:12:19;3.60;;;1.20;;
19754;SDS011;10036;47.812;9.274;2024-01-25T03:14:48;3.75;;;1.77;;
19754;SDS011;10036;47.812;9.274;2024-01-25T03:17:15;2.65;;;1.92;;
19754;SDS011;10036;47.812;9.274;2024-01-25T03:19:42;2.78;;;2.00;;
19754;SDS011;10036;47.812;9.274;2024-01-25T03:22:09;6.65;;;2.40;;
19754;SDS011;10036;47.812;9.274;2024-01-25T03:24:37;4.80;;;2.15;;
19754;SDS011;10036;47.812;9.274;2024-01-25T03:27:03;4.65;;;2.22;;
19754;SDS011;10036;47.812;9.274;2024-01-25T03:29:30;6.28;;;2.35;;
19754;SDS011;10036;47.812;9.274;2024-01-25T03:31:59;5.97;;;2.53;;
19754;SDS011;10036;47.812;9.274;2024-01-25T03:34:26;3.47;;;2.15;;
19754;SDS011;10036;47.812;9.274;2024-01-25T03:36:52;4.07;;;2.40;;
19754;SDS011;10036;47.812;9.274;2024-01-25T03:39:19;5.38;;;2.53;;
19754;SDS011;10036;47.812;9.274;2024-01-25T03:41:46;4.90;;;2.50;;
19754;SDS011;10036;47.812;9.274;2024-01-25T03:44:13;2.92;;;2.22;;
19754;SDS011;10036;47.812;9.274;2024-01-25T03:46:40;4.75;;;2.30;;
19754;SDS011;10036;47.812;9.274;2024-01-25T03:49:08;4.38;;;2.15;;
19754;SDS011;10036;47.812;9.274;2024-01-25T03:51:34;3.67;;;1.98;;
19754;SDS011;10036;47.812;9.274;2024-01-25T03:54:02;5.43;;;2.20;;
19754;SDS011;10036;47.812;9.274;2024-01-25T03:56:29;4.50;;;2.22;;
19754;SDS011;10036;47.812;9.274;2024-01-25T03:58:56;5.63;;;2.10;;
19754;SDS011;10036;47.812;9.274;2024-01-25T04:01:22;5.07;;;2.30;;
19754;SDS011;10036;47.812;9.274;2024-01-25T04:03:49;5.63;;;2.20;;
19754;SDS011;10036;47.812;9.274;2024-01-25T04:06:17;3.30;;;1.88;;
19754;SDS011;10036;47.812;9.274;2024-01-25T04:08:45;5.30;;;2.40;;
19754;SDS011;10036;47.812;9.274;2024-01-25T04:11:11;2.30;;;1.75;;
19754;SDS011;10036;47.812;9.274;2024-01-25T04:13:38;2.50;;;2.05;;
19754;SDS011;10036;47.812;9.274;2024-01-25T04:16:08;3.90;;;2.50;;
19754;SDS011;10036;47.812;9.274;2024-01-25T04:18:35;5.88;;;2.67;;
19754;SDS011;10036;47.812;9.274;2024-01-25T04:21:02;3.60;;;2.20;;
19754;SDS011;10036;47.812;9.274;2024-01-25T04:23:30;7.53;;;2.40;;
19754;SDS011;10036;47.812;9.274;2024-01-25T04:25:57;5.40;;;2.22;;
19754;SDS011;10036;47.812;9.274;2024-01-25T04:28:24;4.65;;;2.63;;
19754;SDS011;10036;47.812;9.274;2024-01-25T04:30:51;3.83;;;2.42;;
19754;SDS011;10036;47.812;9.274;2024-01-25T04:33:18;5.47;;;2.80;;
19754;SDS011;10036;47.812;9.274;2024-01-25T04:35:45;7.05;;;2.75;;
19754;SDS011;10036;47.812;9.274;2024-01-25T04:38:12;10.50;;;3.20;;
19754;SDS011;10036;47.812;9.274;2024-01-25T04:40:40;5.25;;;2.30;;
19754;SDS011;10036;47.812;9.274;2024-01-25T04:43:07;5.63;;;2.33;;
19754;SDS011;10036;47.812;9.274;2024-01-25T04:45:34;8.95;;;5.28;;
19754;SDS011;10036;47.812;9.274;2024-01-25T04:48:00;9.07;;;4.70;;
19754;SDS011;10036;47.812;9.274;2024-01-25T04:50:27;10.00;;;4.28;;
19754;SDS011;10036;47.812;9.274;2024-01-25T04:52:54;5.72;;;4.15;;
19754;SDS011;10036;47.812;9.274;2024-01-25T04:55:21;7.05;;;4.43;;
19754;SDS011;10036;47.812;9.274;2024-01-25T04:57:49;8.30;;;4.45;;
19754;SDS011;10036;47.812;9.274;2024-01-25T05:00:18;7.88;;;4.38;;
19754;SDS011;10036;47.812;9.274;2024-01-25T05:02:45;7.68;;;4.07;;
19754;SDS011;10036;47.812;9.274;2024-01-25T05:05:12;7.28;;;3.80;;
19754;SDS011;10036;47.812;9.274;2024-01-25T05:07:39;6.03;;;3.33;;
19754;SDS011;10036;47.812;9.274;2024-01-25T05:10:06;5.63;;;3.25;;
19754;SDS011;10036;47.812;9.274;2024-01-25T05:12:33;7.13;;;2.42;;
19754;SDS011;10036;47.812;9.274;2024-01-25T05:15:02;6.72;;;2.20;;
19754;SDS011;10036;47.812;9.274;2024-01-25T05:17:29;3.08;;;1.77;;
19754;SDS011;10036;47.812;9.274;2024-01-25T05:19:56;4.72;;;2.00;;
19754;SDS011;10036;47.812;9.274;2024-01-25T05:22:22;3.63;;;2.00;;
19754;SDS011;10036;47.812;9.274;2024-01-25T05:24:49;4.35;;;2.15;;
19754;SDS011;10036;47.812;9.274;2024-01-25T05:27:16;5.00;;;2.15;;
19754;SDS011;10036;47.812;9.274;2024-01-25T05:29:43;4.38;;;2.03;;
19754;SDS011;10036;47.812;9.274;2024-01-25T05:32:11;5.72;;;2.47;;
19754;SDS011;10036;47.812;9.274;2024-01-25T05:34:38;4.35;;;2.05;;
19754;SDS011;10036;47.812;9.274;2024-01-25T05:37:05;5.50;;;2.30;;
19754;SDS011;10036;47.812;9.274;2024-01-25T05:39:32;3.78;;;2.17;;
19754;SDS011;10036;47.812;9.274;2024-01-25T05:41:59;5.50;;;2.67;;
19754;SDS011;10036;47.812;9.274;2024-01-25T05:44:25;4.40;;;2.20;;
19754;SDS011;10036;47.812;9.274;2024-01-25T05:46:52;4.57;;;2.25;;
19754;SDS011;10036;47.812;9.274;2024-01-25T05:49:20;6.78;;;2.38;;
19754;SDS011;10036;47.812;9.274;2024-01-25T05:51:47;6.38;;;2.20;;
19754;SDS011;10036;47.812;9.274;2024-01-25T05:54:14;8.32;;;2.47;;
19754;SDS011;10036;47.812;9.274;2024-01-25T05:56:41;6.95;;;2.47;;
19754;SDS011;10036;47.812;9.274;2024-01-25T05:59:08;7.88;;;2.17;;
19754;SDS011;10036;47.812;9.274;2024-01-25T06:01:35;5.75;;;2.17;;
19754;SDS011;10036;47.812;9.274;2024-01-25T06:04:01;9.00;;;2.95;;
19754;SDS011;10036;47.812;9.274;2024-01-25T06:06:30;4.45;;;2.42;;
19754;SDS011;10036;47.812;9.274;2024-01-25T06:08:57;6.50;;;2.75;;
19754;SDS011;10036;47.812;9.274;2024-01-25T06:11:23;6.75;;;2.55;;
19754;SDS011;10036;47.812;9.274;2024-01-25T06:13:50;4.80;;;1.80;;
19754;SDS011;10036;47.812;9.274;2024-01-25T06:16:17;4.18;;;2.03;;
19754;SDS011;10036;47.812;9.274;2024-01-25T06:18:44;6.32;;;2.63;;
19754;SDS011;10036;47.812;9.274;2024-01-25T06:21:11;6.60;;;2.78;;
19754;SDS011;10036;47.812;9.274;2024-01-25T06:23:39;4.80;;;2.00;;
19754;SDS011;10036;47.812;9.274;2024-01-25T06:26:06;5.00;;;2.50;;
19754;SDS011;10036;47.812;9.274;2024-01-25T06:28:32;4.55;;;2.10;;
19754;SDS011;10036;47.812;9.274;2024-01-25T06:31:00;4.75;;;2.30;;
19754;SDS011;10036;47.812;9.274;2024-01-25T06:33:27;9.40;;;4.35;;
19754;SDS011;10036;47.812;9.274;2024-01-25T06:35:55;4.70;;;2.85;;
19754;SDS011;10036;47.812;9.274;2024-01-25T06:38:22;7.10;;;3.28;;
19754;SDS011;10036;47.812;9.274;2024-01-25T06:40:50;5.85;;;3.55;;
19754;SDS011;10036;47.812;9.274;2024-01-25T06:43:17;6.68;;;5.20;;
19754;SDS011;10036;47.812;9.274;2024-01-25T06:45:44;12.80;;;6.25;;
19754;SDS011;10036;47.812;9.274;2024-01-25T06:48:11;11.77;;;6.20;;
19754;SDS011;10036;47.812;9.274;2024-01-25T06:50:38;9.15;;;6.13;;
19754;SDS011;10036;47.812;9.274;2024-01-25T06:53:05;8.02;;;4.68;;
19754;SDS011;10036;47.812;9.274;2024-01-25T06:55:32;7.82;;;5.03;;
19754;SDS011;10036;47.812;9.274;2024-01-25T06:58:00;4.85;;;4.18;;
19754;SDS011;10036;47.812;9.274;2024-01-25T07:00:27;6.32;;;4.30;;
19754;SDS011;10036;47.812;9.274;2024-01-25T07:02:53;6.05;;;3.92;;
19754;SDS011;10036;47.812;9.274;2024-01-25T07:05:20;4.50;;;3.65;;
19754;SDS011;10036;47.812;9.274;2024-01-25T07:07:47;9.02;;;4.68;;
19754;SDS011;10036;47.812;9.274;2024-01-25T07:10:14;9.63;;;4.60;;
19754;SDS011;10036;47.812;9.274;2024-01-25T07:12:41;10.25;;;5.53;;
19754;SDS011;10036;47.812;9.274;2024-01-25T07:15:09;13.45;;;6.63;;
19754;SDS011;10036;47.812;9.274;2024-01-25T07:17:37;20.63;;;6.75;;
19754;SDS011;10036;47.812;9.274;2024-01-25T07:20:04;13.93;;;6.43;;
19754;SDS011;10036;47.812;9.274;2024-01-25T07:22:32;12.40;;;5.60;;
19754;SDS011;10036;47.812;9.274;2024-01-25T07:24:59;12.27;;;5.35;;
19754;SDS011;10036;47.812;9.274;2024-01-25T07:27:26;10.95;;;5.20;;
19754;SDS011;10036;47.812;9.274;2024-01-25T07:29:53;8.68;;;4.90;;
19754;SDS011;10036;47.812;9.274;2024-01-25T07:32:21;9.27;;;3.88;;
19754;SDS011;10036;47.812;9.274;2024-01-25T07:34:49;7.15;;;3.03;;
19754;SDS011;10036;47.812;9.274;2024-01-25T07:37:16;5.63;;;2.60;;
19754;SDS011;10036;47.812;9.274;2024-01-25T07:39:43;8.68;;;2.67;;
19754;SDS011;10036;47.812;9.274;2024-01-25T07:42:10;3.72;;;2.20;;
19754;SDS011;10036;47.812;9.274;2024-01-25T07:44:37;2.53;;;1.83;;
19754;SDS011;10036;47.812;9.274;2024-01-25T07:47:04;2.97;;;2.03;;
19754;SDS011;10036;47.812;9.274;2024-01-25T07:49:32;2.15;;;1.95;;
19754;SDS011;10036;47.812;9.274;2024-01-25T07:51:59;5.45;;;2.20;;
19754;SDS011;10036;47.812;9.274;2024-01-25T07:54:26;4.07;;;2.17;;
19754;SDS011;10036;47.812;9.274;2024-01-25T07:56:53;2.80;;;1.92;;
19754;SDS011;10036;47.812;9.274;2024-01-25T07:59:20;3.63;;;2.00;;
19754;SDS011;10036;47.812;9.274;2024-01-25T08:01:46;4.38;;;1.85;;
19754;SDS011;10036;47.812;9.274;2024-01-25T08:04:13;2.63;;;1.70;;
19754;SDS011;10036;47.812;9.274;2024-01-25T08:06:42;4.00;;;2.00;;
19754;SDS011;10036;47.812;9.274;2024-01-25T08:09:09;3.95;;;2.65;;
19754;SDS011;10036;47.812;9.274;2024-01-25T08:11:36;3.45;;;2.78;;
19754;SDS011;10036;47.812;9.274;2024-01-25T08:14:03;5.47;;;3.35;;
19754;SDS011;10036;47.812;9.274;2024-01-25T08:16:30;4.93;;;3.10;;
19754;SDS011;10036;47.812;9.274;2024-01-25T08:18:57;5.72;;;3.28;;
19754;SDS011;10036;47.812;9.274;2024-01-25T08:21:24;4.68;;;3.22;;
19754;SDS011;10036;47.812;9.274;2024-01-25T08:23:52;5.28;;;3.30;;
19754;SDS011;10036;47.812;9.274;2024-01-25T08:26:19;6.40;;;3.55;;
19754;SDS011;10036;47.812;9.274;2024-01-25T08:28:46;7.10;;;3.40;;
19754;SDS011;10036;47.812;9.274;2024-01-25T08:31:13;4.65;;;3.22;;
19754;SDS011;10036;47.812;9.274;2024-01-25T08:33:40;5.63;;;3.38;;
19754;SDS011;10036;47.812;9.274;2024-01-25T08:36:09;8.10;;;3.83;;
19754;SDS011;10036;47.812;9.274;2024-01-25T08:38:36;6.68;;;3.47;;
19754;SDS011;10036;47.812;9.274;2024-01-25T08:41:04;7.75;;;5.10;;
19754;SDS011;10036;47.812;9.274;2024-01-25T08:43:31;7.15;;;5.50;;
19754;SDS011;10036;47.812;9.274;2024-01-25T08:45:58;8.07;;;5.38;;
19754;SDS011;10036;47.812;9.274;2024-01-25T08:48:24;7.75;;;4.88;;
19754;SDS011;10036;47.812;9.274;2024-01-25T08:50:52;4.47;;;3.70;;
19754;SDS011;10036;47.812;9.274;2024-01-25T08:53:19;5.45;;;4.38;;
19754;SDS011;10036;47.812;9.274;2024-01-25T08:55:47;5.68;;;3.75;;
19754;SDS011;10036;47.812;9.274;2024-01-25T08:58:16;6.03;;;3.50;;
19754;SDS011;10036;47.812;9.274;2024-01-25T09:00:42;6.47;;;3.47;;
19754;SDS011;10036;47.812;9.274;2024-01-25T09:03:09;4.05;;;2.97;;
19754;SDS011;10036;47.812;9.274;2024-01-25T09:05:36;2.83;;;2.50;;
19754;SDS011;10036;47.812;9.274;2024-01-25T09:08:06;5.15;;;2.80;;
19754;SDS011;10036;47.812;9.274;2024-01-25T09:10:34;3.60;;;2.45;;
19754;SDS011;10036;47.812;9.274;2024-01-25T09:13:01;3.42;;;3.05;;
19754;SDS011;10036;47.812;9.274;2024-01-25T09:15:29;3.15;;;2.50;;
19754;SDS011;10036;47.812;9.274;2024-01-25T09:17:55;6.05;;;2.80;;
19754;SDS011;10036;47.812;9.274;2024-01-25T09:20:22;2.92;;;2.25;;
19754;SDS011;10036;47.812;9.274;2024-01-25T09:22:50;2.78;;;2.10;;
19754;SDS011;10036;47.812;9.274;2024-01-25T09:25:18;1.80;;;1.70;;
19754;SDS011;10036;47.812;9.274;2024-01-25T09:27:45;3.10;;;2.00;;
19754;SDS011;10036;47.812;9.274;2024-01-25T09:30:12;2.00;;;1.90;;
19754;SDS011;10036;47.812;9.274;2024-01-25T09:32:41;1.73;;;1.58;;
19754;SDS011;10036;47.812;9.274;2024-01-25T09:35:08;2.83;;;1.77;;
19754;SDS011;10036;47.812;9.274;2024-01-25T09:37:35;3.55;;;1.80;;
19754;SDS011;10036;47.812;9.274;2024-01-25T09:40:03;2.22;;;1.80;;
19754;SDS011;10036;47.812;9.274;2024-01-25T09:42:31;3.15;;;2.00;;
19754;SDS011;10036;47.812;9.274;2024-01-25T09:44:57;4.65;;;2.17;;
19754;SDS011;10036;47.812;9.274;2024-01-25T09:47:24;4.50;;;2.60;;
19754;SDS011;10036;47.812;9.274;2024-01-25T09:49:53;4.20;;;2.80;;
19754;SDS011;10036;47.812;9.274;2024-01-25T09:52:20;2.80;;;2.60;;
19754;SDS011;10036;47.812;9.274;2024-01-25T09:54:51;3.35;;;3.05;;
19754;SDS011;10036;47.812;9.274;2024-01-25T09:57:22;4.95;;;3.35;;
19754;SDS011;10036;47.812;9.274;2024-01-25T09:59:52;5.30;;;3.58;;
19754;SDS011;10036;47.812;9.274;2024-01-25T10:02:20;5.53;;;3.55;;
19754;SDS011;10036;47.812;9.274;2024-01-25T10:04:48;5.05;;;3.53;;
19754;SDS011;10036;47.812;9.274;2024-01-25T10:07:18;6.50;;;3.65;;
19754;SDS011;10036;47.812;9.274;2024-01-25T10:10:02;4.05;;;3.10;;
19754;SDS011;10036;47.812;9.274;2024-01-25T10:12:30;4.55;;;3.40;;
19754;SDS011;10036;47.812;9.274;2024-01-25T10:14:57;7.65;;;4.15;;
19754;SDS011;10036;47.812;9.274;2024-01-25T10:17:24;15.88;;;6.28;;
19754;SDS011;10036;47.812;9.274;2024-01-25T10:19:51;12.15;;;6.13;;
19754;SDS011;10036;47.812;9.274;2024-01-25T10:22:19;12.32;;;6.15;;
19754;SDS011;10036;47.812;9.274;2024-01-25T10:24:46;7.93;;;5.13;;
19754;SDS011;10036;47.812;9.274;2024-01-25T10:27:15;7.50;;;5.18;;
19754;SDS011;10036;47.812;9.274;2024-01-25T10:29:42;9.73;;;5.80;;
19754;SDS011;10036;47.812;9.274;2024-01-25T10:32:09;26.65;;;10.90;;
19754;SDS011;10036;47.812;9.274;2024-01-25T10:34:36;49.95;;;19.67;;
19754;SDS011;10036;47.812;9.274;2024-01-25T10:37:03;38.45;;;16.35;;
19754;SDS011;10036;47.812;9.274;2024-01-25T10:39:34;20.63;;;9.00;;
19754;SDS011;10036;47.812;9.274;2024-01-25T10:42:01;18.98;;;8.18;;
19754;SDS011;10036;47.812;9.274;2024-01-25T10:44:28;11.48;;;5.63;;
19754;SDS011;10036;47.812;9.274;2024-01-25T10:46:55;8.80;;;5.80;;
19754;SDS011;10036;47.812;9.274;2024-01-25T10:49:22;5.18;;;3.95;;
19754;SDS011;10036;47.812;9.274;2024-01-25T10:51:50;5.00;;;3.63;;
19754;SDS011;10036;47.812;9.274;2024-01-25T10:54:18;5.47;;;3.38;;
19754;SDS011;10036;47.812;9.274;2024-01-25T10:56:47;6.57;;;3.63;;
19754;SDS011;10036;47.812;9.274;2024-01-25T10:59:15;3.75;;;3.05;;
19754;SDS011;10036;47.812;9.274;2024-01-25T11:01:43;3.17;;;2.88;;
19754;SDS011;10036;47.812;9.274;2024-01-25T11:04:14;3.33;;;2.60;;
19754;SDS011;10036;47.812;9.274;2024-01-25T11:06:43;3.38;;;2.80;;
19754;SDS011;10036;47.812;9.274;2024-01-25T11:09:10;4.35;;;2.80;;
19754;SDS011;10036;47.812;9.274;2024-01-25T11:11:43;4.72;;;2.00;;
19754;SDS011;10036;47.812;9.274;2024-01-25T11:14:12;4.18;;;2.42;;
19754;SDS011;10036;47.812;9.274;2024-01-25T11:16:41;4.25;;;2.25;;
19754;SDS011;10036;47.812;9.274;2024-01-25T11:19:15;5.57;;;2.33;;
19754;SDS011;10036;47.812;9.274;2024-01-25T11:21:43;2.92;;;2.30;;
19754;SDS011;10036;47.812;9.274;2024-01-25T11:24:13;4.43;;;2.10;;
19754;SDS011;10036;47.812;9.274;2024-01-25T11:26:42;2.85;;;2.30;;
19754;SDS011;10036;47.812;9.274;2024-01-25T11:29:09;1.90;;;1.80;;
19754;SDS011;10036;47.812;9.274;2024-01-25T11:31:42;5.50;;;2.17;;
19754;SDS011;10036;47.812;9.274;2024-01-25T11:34:10;3.53;;;1.80;;
19754;SDS011;10036;47.812;9.274;2024-01-25T11:36:37;2.58;;;2.00;;
19754;SDS011;10036;47.812;9.274;2024-01-25T11:39:04;1.95;;;1.85;;
19754;SDS011;10036;47.812;9.274;2024-01-25T11:41:32;2.63;;;2.00;;
19754;SDS011;10036;47.812;9.274;2024-01-25T11:43:59;2.83;;;2.38;;
19754;SDS011;10036;47.812;9.274;2024-01-25T11:46:27;2.92;;;2.60;;
19754;SDS011;10036;47.812;9.274;2024-01-25T11:48:55;2.42;;;2.22;;
19754;SDS011;10036;47.812;9.274;2024-01-25T11:51:22;2.78;;;2.42;;
19754;SDS011;10036;47.812;9.274;2024-01-25T11:53:49;3.80;;;2.28;;
19754;SDS011;10036;47.812;9.274;2024-01-25T11:56:17;3.70;;;2.65;;
19754;SDS011;10036;47.812;9.274;2024-01-25T11:58:46;4.60;;;3.20;;
19754;SDS011;10036;47.812;9.274;2024-01-25T12:01:14;5.78;;;3.03;;
19754;SDS011;10036;47.812;9.274;2024-01-25T12:03:42;3.78;;;3.03;;
19754;SDS011;10036;47.812;9.274;2024-01-25T12:06:10;2.92;;;2.63;;
19754;SDS011;10036;47.812;9.274;2024-01-25T12:08:38;2.70;;;2.50;;
19754;SDS011;10036;47.812;9.274;2024-01-25T12:11:05;2.75;;;2.45;;
19754;SDS011;10036;47.812;9.274;2024-01-25T12:13:34;3.78;;;2.10;;
19754;SDS011;10036;47.812;9.274;2024-01-25T12:16:02;5.10;;;2.10;;
19754;SDS011;10036;47.812;9.274;2024-01-25T12:18:29;3.95;;;2.00;;
19754;SDS011;10036;47.812;9.274;2024-01-25T12:20:57;4.22;;;2.47;;
19754;SDS011;10036;47.812;9.274;2024-01-25T12:23:33;3.70;;;2.35;;
19754;SDS011;10036;47.812;9.274;2024-01-25T12:26:01;3.38;;;2.00;;
19754;SDS011;10036;47.812;9.274;2024-01-25T12:28:30;5.05;;;2.03;;
19754;SDS011;10036;47.812;9.274;2024-01-25T12:30:57;3.83;;;2.40;;
19754;SDS011;10036;47.812;9.274;2024-01-25T12:33:24;2.58;;;2.00;;
19754;SDS011;10036;47.812;9.274;2024-01-25T12:35:51;3.20;;;1.98;;
19754;SDS011;10036;47.812;9.274;2024-01-25T12:38:19;2.95;;;2.60;;
19754;SDS011;10036;47.812;9.274;2024-01-25T12:40:48;2.65;;;1.98;;
19754;SDS011;10036;47.812;9.274;2024-01-25T12:43:16;3.67;;;2.15;;
19754;SDS011;10036;47.812;9.274;2024-01-25T12:45:43;3.35;;;2.08;;
19754;SDS011;10036;47.812;9.274;2024-01-25T12:48:10;2.92;;;2.65;;
19754;SDS011;10036;47.812;9.274;2024-01-25T12:50:37;2.60;;;2.40;;
19754;SDS011;10036;47.812;9.274;2024-01-25T12:53:04;2.35;;;2.15;;
19754;SDS011;10036;47.812;9.274;2024-01-25T12:55:32;2.35;;;1.80;;
19754;SDS011;10036;47.812;9.274;2024-01-25T12:58:01;2.33;;;1.80;;
19754;SDS011;10036;47.812;9.274;2024-01-25T13:00:29;2.85;;;2.00;;
19754;SDS011;10036;47.812;9.274;2024-01-25T13:02:56;4.95;;;2.10;;
19754;SDS011;10036;47.812;9.274;2024-01-25T13:05:23;2.00;;;1.90;;
19754;SDS011;10036;47.812;9.274;2024-01-25T13:07:50;1.77;;;1.67;;
19754;SDS011;10036;47.812;9.274;2024-01-25T13:10:17;2.17;;;1.70;;
19754;SDS011;10036;47.812;9.274;2024-01-25T13:12:43;2.42;;;2.03;;
19754;SDS011;10036;47.812;9.274;2024-01-25T13:15:13;2.78;;;2.42;;
19754;SDS011;10036;47.812;9.274;2024-01-25T13:17:40;3.08;;;2.42;;
19754;SDS011;10036;47.812;9.274;2024-01-25T13:20:07;2.28;;;2.10;;
19754;SDS011;10036;47.812;9.274;2024-01-25T13:22:34;2.97;;;2.00;;
19754;SDS011;10036;47.812;9.274;2024-01-25T13:25:01;2.38;;;1.80;;
19754;SDS011;10036;47.812;9.274;2024-01-25T13:27:28;2.92;;;2.45;;
19754;SDS011;10036;47.812;9.274;2024-01-25T13:29:55;3.60;;;2.50;;
19754;SDS011;10036;47.812;9.274;2024-01-25T13:32:24;2.50;;;2.30;;
19754;SDS011;10036;47.812;9.274;2024-01-25T13:34:51;3.03;;;2.72;;
19754;SDS011;10036;47.812;9.274;2024-01-25T13:37:17;3.25;;;2.47;;
19754;SDS011;10036;47.812;9.274;2024-01-25T13:39:44;2.60;;;2.40;;
19754;SDS011;10036;47.812;9.274;2024-01-25T13:42:11;3.80;;;3.05;;
19754;SDS011;10036;47.812;9.274;2024-01-25T13:44:38;7.25;;;4.82;;
19754;SDS011;10036;47.812;9.274;2024-01-25T13:47:05;8.40;;;5.47;;
19754;SDS011;10036;47.812;9.274;2024-01-25T13:49:34;6.70;;;4.40;;
19754;SDS011;10036;47.812;9.274;2024-01-25T13:52:01;8.60;;;5.50;;
19754;SDS011;10036;47.812;9.274;2024-01-25T13:54:28;7.50;;;5.00;;
19754;SDS011;10036;47.812;9.274;2024-01-25T13:56:55;7.57;;;4.93;;
19754;SDS011;10036;47.812;9.274;2024-01-25T13:59:22;8.57;;;5.38;;
19754;SDS011;10036;47.812;9.274;2024-01-25T14:01:50;4.47;;;3.80;;
19754;SDS011;10036;47.812;9.274;2024-01-25T14:04:17;2.60;;;2.40;;
19754;SDS011;10036;47.812;9.274;2024-01-25T14:06:45;2.40;;;2.20;;
19754;SDS011;10036;47.812;9.274;2024-01-25T14:09:12;2.72;;;2.00;;
19754;SDS011;10036;47.812;9.274;2024-01-25T14:11:39;2.10;;;2.00;;
19754;SDS011;10036;47.812;9.274;2024-01-25T14:14:06;1.80;;;1.70;;
19754;SDS011;10036;47.812;9.274;2024-01-25T14:16:33;1.80;;;1.70;;
19754;SDS011;10036;47.812;9.274;2024-01-25T14:19:00;1.55;;;1.45;;
19754;SDS011;10036;47.812;9.274;2024-01-25T14:21:28;2.03;;;1.50;;
19754;SDS011;10036;47.812;9.274;2024-01-25T14:23:57;2.22;;;1.48;;
19754;SDS011;10036;47.812;9.274;2024-01-25T14:26:23;4.10;;;1.60;;
19754;SDS011;10036;47.812;9.274;2024-01-25T14:28:50;3.22;;;2.75;;
19754;SDS011;10036;47.812;9.274;2024-01-25T14:31:17;9.10;;;5.60;;
19754;SDS011;10036;47.812;9.274;2024-01-25T14:33:44;21.10;;;11.93;;
19754;SDS011;10036;47.812;9.274;2024-01-25T14:36:11;8.70;;;6.22;;
19754;SDS011;10036;47.812;9.274;2024-01-25T14:38:39;4.75;;;4.07;;
19754;SDS011;10036;47.812;9.274;2024-01-25T14:41:09;3.28;;;2.90;;
19754;SDS011;10036;47.812;9.274;2024-01-25T14:43:36;2.67;;;2.47;;
19754;SDS011;10036;47.812;9.274;2024-01-25T14:46:04;2.42;;;2.28;;